Aviation Digital Data Service (ADDS)

Output produced by METARs form (2309 UTC 21 February 2018)
found at http://www.aviationweather.gov/adds/metars/
 
KAOO 212253Z AUTO 33006KT 10SM SCT024 OVC040 15/11 A3037 RMK AO2 SLP285 T01500106
KAOO 212153Z AUTO 34013G17KT 10SM FEW040 BKN050 BKN095 16/11 A3034 RMK AO2 SLP272 T01610106
KAOO 212053Z AUTO 33017G22KT 10SM SCT049 OVC060 17/11 A3030 RMK AO2 WSHFT 1940 SLP260 T01720111 53021
KAOO 212000Z AUTO 31014G23KT 10SM SCT050 BKN060 OVC100 21/14 A3026 RMK AO2 WSHFT 1940 T02110139
KAOO 211953Z AUTO 32018G22KT 10SM SCT050 BKN065 OVC100 22/14 A3025 RMK AO2 PK WND 26032/1917 WSHFT 1939 SLP240 T02170139
KAOO 211853Z AUTO 25020G26KT 10SM FEW050 BKN060 OVC095 23/13 A3023 RMK AO2 PK WND 26026/1811 SLP232 T02330128
KAOO 211753Z AUTO 25016G27KT 10SM BKN055 24/13 A3024 RMK AO2 PK WND 25029/1743 SLP233 T02390128 10244 20128 58008
KAOO 211653Z AUTO 22006KT 10SM BKN050 22/13 A3025 RMK AO2 SLP237 T02170133
KAOO 211553Z AUTO 21013G23KT 10SM BKN050 21/13 A3026 RMK AO2 SLP240 T02110128
KAOO 211453Z AUTO 20012KT 10SM CLR 18/12 A3026 RMK AO2 SLP243 T01830117 50002
KAOO 211353Z AUTO 26003KT 10SM FEW075 16/11 A3028 RMK AO2 SLP249 T01610111
KAOO 211253Z AUTO 19005KT 10SM CLR 13/10 A3026 RMK AO2 SLP245 T01330100
KAOO 210753Z AUTO 20007KT 10SM CLR 13/10 A3026 RMK AO2 SLP241 T01330100
KAOO 210653Z AUTO 24004KT 10SM CLR 14/11 A3026 RMK AO2 SLP243 T01440106
KAOO 210553Z AUTO 21004KT 10SM CLR 14/11 A3027 RMK AO2 SLP244 T01440106 10206 20144 53003
KAOO 201453Z AUTO 24003KT 10SM SCT080 12/09 A3028 RMK AO2 SLP261 T01220094 50007
KAOO 201353Z AUTO 25003KT 10SM CLR 09/08 A3029 RMK AO2 SLP265 T00940083
KAOO 201253Z AUTO 25004KT 10SM SCT070 08/08 A3028 RMK AO2 SLP262 T00830078
KAOO 201153Z AUTO 28006KT 7SM CLR 07/07 A3026 RMK AO2 SLP257 70014 T00720067 10072 20022 51012
KAOO 201136Z AUTO 27004KT 3SM BR FEW002 FEW060 06/06 A3025 RMK AO2 T00610056
KAOO 201128Z AUTO 00000KT 2SM BR FEW002 SCT060 07/06 A3025 RMK AO2 T00670061
KAOO 201113Z AUTO 04003KT 3/4SM BR FEW002 FEW060 06/05 A3025 RMK AO2 T00560050